Time;durP1;ratioP1;P1;durP2;ratioP2;P2;SDS_P1;SDS_P2;PMS_P1;PMS_P2;Temp;Humidity;BMP_temperature;BMP_pressure;BME280_temperature;BME280_humidity;BME280_pressure;Samples;Min_cycle;Max_cycle;Signal;HPM_P1;HPM_P2
2022/05/07 00:01:56;;;;;;;3.30;2.78;;;;;;;7.89;100.00;91352.94;5034055;28;20450;-65
2022/05/07 00:04:21;;;;;;;3.55;2.50;;;;;;;7.84;100.00;91351.16;5033796;28;20032;-65
2022/05/07 00:06:47;;;;;;;2.70;2.25;;;;;;;7.81;100.00;91346.41;5033871;28;20022;-66
2022/05/07 00:09:12;;;;;;;2.95;2.63;;;;;;;7.80;100.00;91350.13;5033891;28;20522;-65
2022/05/07 00:11:38;;;;;;;3.13;2.67;;;;;;;7.85;100.00;91354.59;5034088;28;20034;-66
2022/05/07 00:14:04;;;;;;;3.58;2.78;;;;;;;7.87;100.00;91355.88;5033826;28;20078;-65
2022/05/07 00:19:13;;;;;;;3.50;2.45;;;;;;;7.80;100.00;91352.78;5034008;28;20208;-66
2022/05/07 00:21:38;;;;;;;5.70;2.95;;;;;;;7.80;100.00;91347.50;5033618;28;20119;-66
2022/05/07 00:24:04;;;;;;;3.97;2.58;;;;;;;7.70;100.00;91344.94;5033791;28;20095;-65
2022/05/07 00:26:30;;;;;;;3.85;2.28;;;;;;;7.70;100.00;91339.63;5033588;28;20033;-64
2022/05/07 00:28:55;;;;;;;2.78;2.28;;;;;;;7.65;100.00;91329.09;5033197;28;20099;-65
2022/05/07 00:31:21;;;;;;;3.22;2.40;;;;;;;7.59;100.00;91338.19;5033513;28;20021;-65
2022/05/07 00:33:46;;;;;;;5.90;2.33;;;;;;;7.57;100.00;91329.72;5033500;28;20021;-65
2022/05/07 00:36:12;;;;;;;2.45;2.15;;;;;;;7.50;100.00;91338.78;5015423;28;20120;-65
2022/05/07 00:38:37;;;;;;;3.00;2.25;;;;;;;7.55;100.00;91347.72;5033379;28;20034;-65
2022/05/07 00:41:03;;;;;;;3.28;2.40;;;;;;;7.49;100.00;91345.16;5033220;28;20037;-65
2022/05/07 00:43:40;;;;;;;5.10;2.50;;;;;;;7.39;100.00;91339.94;5033259;28;20047;-65
2022/05/07 00:46:06;;;;;;;2.78;2.45;;;;;;;7.38;100.00;91340.22;5033069;28;20032;-66
2022/05/07 00:48:32;;;;;;;3.50;2.67;;;;;;;7.48;100.00;91337.47;5033217;28;20025;-66
2022/05/07 00:53:45;;;;;;;4.50;2.22;;;;;;;7.39;100.00;91339.94;5033299;28;20560;-65
2022/05/07 00:56:11;;;;;;;2.75;2.05;;;;;;;7.44;100.00;91339.91;5032930;28;20569;-65
2022/05/07 00:58:38;;;;;;;2.50;2.10;;;;;;;7.48;100.00;91327.69;5032861;28;20022;-65
2022/05/07 01:01:04;;;;;;;2.40;2.20;;;;;;;7.51;100.00;91331.63;5032834;28;20059;-65
2022/05/07 01:03:30;;;;;;;3.08;2.28;;;;;;;7.49;100.00;91328.47;5032852;28;20547;-65
2022/05/07 01:05:56;;;;;;;3.22;2.67;;;;;;;7.47;100.00;91326.09;5032762;28;20021;-65
2022/05/07 01:08:22;;;;;;;2.90;2.65;;;;;;;7.41;100.00;91331.72;5031653;28;20071;-66
2022/05/07 01:10:48;;;;;;;10.82;3.13;;;;;;;7.40;100.00;91330.91;5032654;28;20025;-65
2022/05/07 01:13:14;;;;;;;4.20;2.63;;;;;;;7.36;100.00;91329.91;5032576;28;20083;-65
2022/05/07 01:15:47;;;;;;;2.80;2.38;;;;;;;7.34;100.00;91332.03;5032604;28;20032;-65
2022/05/07 01:18:13;;;;;;;3.95;2.45;;;;;;;7.34;100.00;91337.34;5014871;28;20411;-65
2022/05/07 01:20:39;;;;;;;2.95;2.42;;;;;;;7.31;100.00;91331.81;5032502;28;20094;-65
2022/05/07 01:23:05;;;;;;;2.47;2.28;;;;;;;7.24;100.00;91337.41;5032520;28;20021;-65
2022/05/07 01:25:32;;;;;;;5.70;2.92;;;;;;;7.25;100.00;91335.56;5032219;28;20037;-65
2022/05/07 01:27:58;;;;;;;2.80;2.15;;;;;;;7.16;100.00;91333.53;5032139;28;20107;-66
2022/05/07 01:30:24;;;;;;;3.67;2.40;;;;;;;7.13;100.00;91338.59;5032332;28;20021;-65
2022/05/07 01:32:49;;;;;;;2.67;2.17;;;;;;;7.10;100.00;91337.28;5032344;28;20022;-65
2022/05/07 01:35:15;;;;;;;3.53;2.67;;;;;;;7.04;100.00;91343.66;5032207;28;20036;-65
2022/05/07 01:37:40;;;;;;;2.80;2.42;;;;;;;7.00;100.00;91336.56;5032263;28;20022;-65
2022/05/07 01:40:07;;;;;;;3.78;2.67;;;;;;;6.91;100.00;91336.34;5032214;28;20029;-66
2022/05/07 01:42:32;;;;;;;3.15;2.50;;;;;;;6.90;100.00;91329.50;5032005;28;20111;-66
2022/05/07 01:44:58;;;;;;;3.40;2.72;;;;;;;6.94;100.00;91335.00;5031891;28;20468;-66
2022/05/07 01:50:08;;;;;;;3.88;2.17;;;;;;;6.83;100.00;91323.75;5032084;28;20031;-66
2022/05/07 01:52:33;;;;;;;3.40;2.85;;;;;;;6.77;100.00;91317.69;5032199;28;20100;-66
2022/05/07 01:54:59;;;;;;;6.70;2.80;;;;;;;6.66;100.00;91305.63;5028852;28;20502;-65
2022/05/07 01:57:24;;;;;;;2.70;2.45;;;;;;;6.69;100.00;91320.94;5031883;28;20029;-65
2022/05/07 01:59:51;;;;;;;3.17;2.42;;;;;;;6.70;100.00;91322.50;5032010;28;20442;-65
2022/05/07 02:02:47;;;;;;;4.38;2.58;;;;;;;6.72;100.00;91327.50;5032047;28;20455;-65
2022/05/07 02:05:12;;;;;;;2.83;2.50;;;;;;;6.65;100.00;91319.13;5032354;28;20029;-65
2022/05/07 02:07:38;;;;;;;2.70;2.50;;;;;;;6.69;100.00;91309.56;5032026;28;20407;-65
2022/05/07 02:10:04;;;;;;;4.40;3.08;;;;;;;6.73;100.00;91319.31;5031509;28;20026;-65
2022/05/07 02:12:29;;;;;;;4.15;2.83;;;;;;;6.68;100.00;91318.56;5031607;28;20021;-65
2022/05/07 02:14:55;;;;;;;3.95;2.90;;;;;;;6.50;100.00;91312.06;5031449;28;20028;-66
2022/05/07 02:17:20;;;;;;;3.72;2.92;;;;;;;6.36;100.00;91316.38;5031598;28;20547;-66
2022/05/07 02:19:46;;;;;;;3.95;3.13;;;;;;;6.32;100.00;91318.78;5031197;28;20021;-66
2022/05/07 02:22:11;;;;;;;3.25;2.83;;;;;;;6.20;100.00;91316.47;5031385;28;20515;-66
2022/05/07 02:24:37;;;;;;;4.63;3.17;;;;;;;6.11;100.00;91309.38;5031317;28;20030;-65
2022/05/07 02:27:03;;;;;;;4.18;2.80;;;;;;;6.02;100.00;91309.16;5031162;28;20025;-65
2022/05/07 02:29:28;;;;;;;5.32;3.20;;;;;;;5.84;100.00;91318.44;5031392;28;20036;-65
2022/05/07 02:32:03;;;;;;;4.53;3.30;;;;;;;5.66;100.00;91309.25;5031252;28;20051;-65
2022/05/07 02:34:30;;;;;;;3.95;3.10;;;;;;;5.46;100.00;91314.59;5031229;28;20032;-66
2022/05/07 02:36:56;;;;;;;3.30;3.00;;;;;;;5.34;100.00;91312.22;5031290;28;20040;-66
2022/05/07 02:39:21;;;;;;;3.22;2.75;;;;;;;5.26;100.00;91314.63;5031282;28;20026;-66
2022/05/07 02:44:31;;;;;;;4.10;3.20;;;;;;;5.10;100.00;91322.56;5031056;28;20476;-65
2022/05/07 02:46:56;;;;;;;10.52;3.97;;;;;;;5.00;100.00;91322.56;5013429;28;20108;-66
2022/05/07 02:49:22;;;;;;;9.07;4.40;;;;;;;4.98;100.00;91322.03;5031078;28;20018;-66
2022/05/07 02:51:47;;;;;;;9.02;3.88;;;;;;;4.93;100.00;91327.31;5031167;28;20021;-66
2022/05/07 02:54:12;;;;;;;4.07;3.30;;;;;;;4.86;100.00;91329.41;5030987;28;20017;-65
2022/05/07 02:56:38;;;;;;;3.33;2.78;;;;;;;4.85;100.00;91324.41;5031042;28;20017;-65
2022/05/07 02:59:03;;;;;;;6.38;3.05;;;;;;;4.79;100.00;91327.06;5031037;28;20021;-65
2022/05/07 03:01:29;;;;;;;8.50;3.10;;;;;;;4.80;100.00;91333.91;5030935;28;20488;-65
2022/05/07 03:03:54;;;;;;;10.65;2.95;;;;;;;4.76;100.00;91332.06;5030969;28;20017;-65
2022/05/07 03:06:20;;;;;;;5.28;3.00;;;;;;;4.81;100.00;91334.69;5030918;28;20033;-66
2022/05/07 03:08:45;;;;;;;3.42;2.72;;;;;;;4.85;100.00;91342.88;5030965;28;20071;-66
2022/05/07 03:11:11;;;;;;;3.08;2.72;;;;;;;4.84;100.00;91331.53;5030867;28;20048;-64
2022/05/07 03:13:37;;;;;;;3.88;3.20;;;;;;;4.82;100.00;91336.28;5030785;28;20032;-63
2022/05/07 03:16:02;;;;;;;4.35;3.35;;;;;;;4.74;100.00;91334.19;5030828;28;20025;-63
2022/05/07 03:18:28;;;;;;;2.97;2.58;;;;;;;4.65;100.00;91331.25;5030917;28;20028;-64
2022/05/07 03:20:54;;;;;;;4.95;2.92;;;;;;;4.66;100.00;91348.66;5030821;28;20532;-64
2022/05/07 03:23:19;;;;;;;3.78;3.38;;;;;;;4.58;100.00;91335.22;5030838;28;20029;-64
2022/05/07 03:25:45;;;;;;;4.50;2.80;;;;;;;4.57;100.00;91338.88;5030657;28;20112;-66
2022/05/07 03:28:11;;;;;;;5.43;3.10;;;;;;;4.51;100.00;91336.25;5030712;28;20439;-66
2022/05/07 03:30:36;;;;;;;4.30;3.08;;;;;;;4.55;100.00;91341.00;5030746;28;20017;-65
2022/05/07 03:33:02;;;;;;;6.25;3.53;;;;;;;4.58;100.00;91343.91;5034415;28;20025;-64
2022/05/07 03:35:28;;;;;;;5.07;3.30;;;;;;;4.66;100.00;91343.38;5034290;28;20021;-64
2022/05/07 03:37:54;;;;;;;5.22;2.85;;;;;;;4.72;100.00;91333.63;5034409;28;20030;-65
2022/05/07 03:40:19;;;;;;;3.60;2.90;;;;;;;4.78;100.00;91329.97;5034117;28;20029;-67
2022/05/07 03:42:45;;;;;;;3.88;3.35;;;;;;;4.81;100.00;91334.69;5014586;28;20088;-67
2022/05/07 03:45:10;;;;;;;5.15;2.95;;;;;;;4.85;100.00;91341.03;5014423;28;20034;-67
2022/05/07 03:47:36;;;;;;;3.10;2.63;;;;;;;4.89;100.00;91352.66;5014569;28;20759;-64
2022/05/07 03:50:01;;;;;;;3.05;2.15;;;;;;;4.86;100.00;91347.06;5014525;28;20092;-66
2022/05/07 03:55:11;;;;;;;3.92;2.95;;;;;;;4.88;100.00;91351.03;5014490;28;20550;-65
2022/05/07 03:57:36;;;;;;;2.92;2.53;;;;;;;4.87;100.00;91346.81;5014302;28;20022;-66
2022/05/07 04:00:02;;;;;;;12.85;6.35;;;;;;;4.88;100.00;91351.03;5014307;28;20026;-67
2022/05/07 04:02:30;;;;;;;64.03;30.35;;;;;;;5.08;100.00;91351.06;5014264;28;20084;-67
2022/05/07 04:04:56;;;;;;;20.70;10.95;;;;;;;5.31;100.00;91349.69;5014061;28;20068;-66
2022/05/07 04:07:21;;;;;;;3.75;2.92;;;;;;;5.43;100.00;91351.28;5014228;28;20041;-63
2022/05/07 04:09:47;;;;;;;5.85;2.78;;;;;;;5.55;100.00;91347.28;5014173;28;20022;-65
2022/05/07 04:12:12;;;;;;;5.30;3.90;;;;;;;5.59;100.00;91350.97;5014177;28;20026;-63
2022/05/07 04:14:38;;;;;;;4.03;3.38;;;;;;;5.43;100.00;91359.19;5013835;28;20018;-63
2022/05/07 04:17:03;;;;;;;3.47;3.10;;;;;;;5.41;100.00;91356.81;5013967;28;20026;-64
2022/05/07 04:19:30;;;;;;;3.47;3.00;;;;;;;5.51;100.00;91359.41;5013981;28;20022;-63
2022/05/07 04:21:56;;;;;;;4.40;3.22;;;;;;;5.58;100.00;91354.69;5014386;28;20025;-66
2022/05/07 04:24:21;;;;;;;5.32;3.45;;;;;;;5.76;100.00;91355.16;5015151;28;20029;-65
2022/05/07 04:26:46;;;;;;;10.65;5.90;;;;;;;5.97;100.00;91354.84;5014039;28;20106;-63
2022/05/07 04:29:16;;;;;;;5.50;3.95;;;;;;;6.13;100.00;91344.22;5013800;28;20029;-66
2022/05/07 04:31:42;;;;;;;3.35;2.58;;;;;;;6.25;100.00;91353.41;5013860;28;20053;-65
2022/05/07 04:34:07;;;;;;;5.20;3.42;;;;;;;6.23;100.00;91352.91;5013695;28;20540;-65
2022/05/07 04:36:33;;;;;;;3.97;3.03;;;;;;;6.30;100.00;91350.72;4996123;28;20030;-65
2022/05/07 04:38:58;;;;;;;4.32;2.95;;;;;;;6.36;100.00;91351.53;5013479;28;20040;-65
2022/05/07 04:41:23;;;;;;;3.53;2.90;;;;;;;6.54;100.00;91350.09;5013566;28;20113;-64
2022/05/07 04:43:50;;;;;;;5.32;3.50;;;;;;;6.95;100.00;91342.69;5013175;28;20500;-64
2022/05/07 04:46:17;;;;;;;3.50;3.20;;;;;;;7.25;100.00;91349.56;5013424;28;20034;-64
2022/05/07 04:48:42;;;;;;;3.63;3.08;;;;;;;7.30;100.00;91352.19;5013418;28;20022;-64
2022/05/07 04:51:07;;;;;;;11.43;6.65;;;;;;;7.69;100.00;91341.50;4995718;28;20511;-65
2022/05/07 04:53:33;;;;;;;3.53;3.20;;;;;;;8.06;100.00;91342.72;4995592;28;20041;-64
2022/05/07 04:55:58;;;;;;;3.83;3.17;;;;;;;8.18;100.00;91331.69;5013099;28;20081;-65
2022/05/07 04:58:24;;;;;;;3.58;3.20;;;;;;;8.58;100.00;91344.47;5013229;28;20030;-64
2022/05/07 05:00:49;;;;;;;3.28;2.97;;;;;;;8.49;100.00;91343.53;5013214;28;20021;-64
2022/05/07 05:03:15;;;;;;;10.32;4.03;;;;;;;8.95;100.00;91341.03;5013051;28;20590;-65
2022/05/07 05:05:41;;;;;;;4.07;3.50;;;;;;;10.13;100.00;91331.88;5012862;28;20036;-64
2022/05/07 05:08:07;;;;;;;3.15;2.85;;;;;;;10.41;99.01;91330.81;5013033;28;20030;-64
2022/05/07 05:10:32;;;;;;;4.47;4.07;;;;;;;11.01;96.05;91333.22;5012919;28;20057;-64
2022/05/07 05:12:58;;;;;;;4.18;3.33;;;;;;;10.99;90.60;91334.63;5012891;28;20026;-64
2022/05/07 05:15:23;;;;;;;3.80;3.38;;;;;;;11.78;86.34;91331.41;5012760;28;20049;-64
2022/05/07 05:17:49;;;;;;;13.32;5.30;;;;;;;12.51;81.19;91333.50;5012859;28;20408;-64
2022/05/07 05:20:15;;;;;;;4.45;3.75;;;;;;;12.25;78.44;91338.72;5015475;28;20102;-64
2022/05/07 05:22:48;;;;;;;4.20;3.35;;;;;;;11.90;78.36;91331.69;5032437;28;20241;-64
2022/05/07 05:25:14;;;;;;;5.97;3.13;;;;;;;12.50;78.95;91336.47;5014593;28;20408;-64
2022/05/07 05:27:39;;;;;;;5.47;3.80;;;;;;;12.86;75.12;91337.03;5032237;28;20049;-64
2022/05/07 05:30:05;;;;;;;8.85;4.28;;;;;;;12.73;75.87;91350.50;5032299;28;20037;-64
2022/05/07 05:32:31;;;;;;;5.53;4.00;;;;;;;12.60;77.06;91338.84;5032210;28;20160;-64
2022/05/07 05:34:56;;;;;;;4.47;3.40;;;;;;;12.20;78.95;91346.88;5032151;28;20029;-64
2022/05/07 05:37:22;;;;;;;4.45;3.80;;;;;;;12.30;78.90;91351.91;5032073;28;20405;-64
2022/05/07 05:39:47;;;;;;;7.97;3.53;;;;;;;12.24;79.64;91350.50;5032197;28;20115;-64
2022/05/07 05:42:13;;;;;;;5.18;3.58;;;;;;;11.37;83.57;91349.19;5032112;28;20025;-65
2022/05/07 05:44:40;;;;;;;6.82;4.53;;;;;;;10.88;90.36;91357.22;5031923;28;20535;-64
2022/05/07 05:47:07;;;;;;;3.58;3.15;;;;;;;10.65;98.37;91351.06;5031926;28;20461;-64
2022/05/07 05:49:36;;;;;;;6.90;3.42;;;;;;;10.48;100.00;91357.78;5031782;28;20033;-65
2022/05/07 05:52:03;;;;;;;5.20;3.90;;;;;;;10.92;100.00;91360.88;5031989;28;20114;-64
2022/05/07 05:54:29;;;;;;;3.65;3.15;;;;;;;11.09;96.68;91367.16;5031144;28;20101;-64
2022/05/07 05:56:55;;;;;;;4.50;3.30;;;;;;;11.19;97.02;91355.47;5031736;28;20029;-64
2022/05/07 05:59:20;;;;;;;5.20;3.83;;;;;;;11.15;97.09;91353.72;5031818;28;20416;-64
2022/05/07 06:01:47;;;;;;;6.30;3.85;;;;;;;11.95;92.93;91356.31;5031718;28;20029;-64
2022/05/07 06:04:14;;;;;;;3.47;2.80;;;;;;;12.49;87.87;91356.25;5031408;28;20030;-64
2022/05/07 06:06:39;;;;;;;4.22;3.83;;;;;;;13.87;78.00;91353.69;5028004;28;20030;-66
2022/05/07 06:09:05;;;;;;;9.95;4.80;;;;;;;15.22;68.45;91355.69;5027997;28;20039;-66
2022/05/07 06:11:30;;;;;;;8.95;6.13;;;;;;;13.96;70.44;91362.50;5029950;28;20495;-66
2022/05/07 06:13:55;;;;;;;4.63;3.83;;;;;;;14.36;68.10;91355.00;5011250;28;20084;-65
2022/05/07 06:16:21;;;;;;;10.65;4.57;;;;;;;13.39;71.13;91359.25;5011236;28;20038;-65
2022/05/07 06:18:46;;;;;;;6.63;4.63;;;;;;;13.47;74.04;91351.22;5011148;28;20037;-65
2022/05/07 06:21:12;;;;;;;7.18;4.25;;;;;;;13.86;71.59;91359.34;5011002;28;20471;-64
2022/05/07 06:23:37;;;;;;;7.25;4.57;;;;;;;14.10;71.90;91362.31;4993398;28;20555;-64
2022/05/07 06:28:47;;;;;;;7.65;4.25;;;;;;;13.81;71.48;91360.31;5010741;28;20061;-60
2022/05/07 06:31:12;;;;;;;6.90;3.45;;;;;;;13.83;72.62;91365.34;5010994;28;20427;-64
2022/05/07 06:33:38;;;;;;;3.95;3.55;;;;;;;15.53;67.99;91358.75;5021150;28;20483;-63
2022/05/07 06:36:06;;;;;;;5.22;4.25;;;;;;;18.05;59.06;91357.25;5030221;28;20032;-64
2022/05/07 06:38:31;;;;;;;7.60;4.30;;;;;;;18.76;55.26;91363.72;5030346;28;20476;-63
2022/05/07 06:41:02;;;;;;;5.32;4.07;;;;;;;18.55;53.93;91353.97;5030152;28;20029;-64
2022/05/07 06:43:29;;;;;;;6.80;4.68;;;;;;;18.40;53.86;91365.50;5030539;28;20032;-63
2022/05/07 06:45:54;;;;;;;7.57;4.82;;;;;;;18.78;54.12;91372.28;5029970;28;20487;-65
2022/05/07 06:48:20;;;;;;;9.77;5.13;;;;;;;19.78;51.27;91359.16;5030260;28;20104;-63
2022/05/07 06:50:45;;;;;;;8.52;5.53;;;;;;;17.28;54.95;91361.94;5030157;28;20033;-64
2022/05/07 06:53:11;;;;;;;5.80;4.35;;;;;;;18.67;54.22;91363.13;5030073;28;20033;-64
2022/05/07 06:55:54;;;;;;;8.50;5.13;;;;;;;18.54;53.12;91365.09;5030269;28;20029;-65
2022/05/07 06:58:22;;;;;;;7.55;4.68;;;;;;;18.63;53.05;91357.66;5030174;28;20107;-65
2022/05/07 07:00:47;;;;;;;9.88;6.10;;;;;;;19.35;51.82;91346.63;5030317;28;20040;-65
2022/05/07 07:03:13;;;;;;;10.07;6.55;;;;;;;18.63;52.98;91348.75;5030421;28;20108;-63
2022/05/07 07:05:38;;;;;;;16.45;6.90;;;;;;;19.54;51.34;91341.28;5031841;28;20030;-63
2022/05/07 07:08:04;;;;;;;9.85;6.00;;;;;;;21.61;48.15;91348.50;5028863;28;20104;-63
2022/05/07 07:10:30;;;;;;;14.50;6.75;;;;;;;21.57;48.49;91352.31;5029091;28;20029;-62
2022/05/07 07:12:55;;;;;;;8.90;6.53;;;;;;;22.23;47.31;91348.94;5034786;28;20080;-62
2022/05/07 07:15:21;;;;;;;9.38;4.78;;;;;;;23.48;44.73;91342.75;5034680;28;20022;-62
2022/05/07 07:17:46;;;;;;;9.30;5.53;;;;;;;23.31;43.83;91341.47;5034864;28;20531;-61
2022/05/07 07:20:12;;;;;;;25.83;5.95;;;;;;;24.73;41.48;91341.47;5034220;28;20029;-63
2022/05/07 07:22:37;;;;;;;7.57;4.57;;;;;;;24.99;41.27;91339.56;5023000;28;20470;-63
2022/05/07 07:25:03;;;;;;;5.68;4.18;;;;;;;26.20;38.42;91334.06;5025410;28;20026;-63
2022/05/07 07:27:28;;;;;;;6.78;4.03;;;;;;;25.15;40.37;91340.00;5014544;28;20038;-62
2022/05/07 07:29:53;;;;;;;7.05;3.42;;;;;;;26.83;37.27;91332.25;5014869;28;20041;-62
2022/05/07 07:32:19;;;;;;;2.88;2.58;;;;;;;27.01;36.08;91330.19;5014912;28;20512;-62
2022/05/07 07:34:44;;;;;;;4.63;3.08;;;;;;;26.18;36.49;91336.38;5014414;28;20488;-63
2022/05/07 07:37:10;;;;;;;3.13;2.45;;;;;;;25.41;38.50;91327.94;5019956;28;20416;-62
2022/05/07 07:39:35;;;;;;;4.55;2.97;;;;;;;27.09;36.66;91336.38;5020407;28;20112;-62
2022/05/07 07:42:01;;;;;;;4.15;2.95;;;;;;;27.31;36.09;91335.06;5024550;28;20041;-63
2022/05/07 07:44:27;;;;;;;3.47;2.58;;;;;;;26.11;36.49;91337.19;5021529;28;20504;-62
2022/05/07 07:49:36;;;;;;;4.25;2.30;;;;;;;26.10;35.32;91335.63;5033979;28;20072;-62
2022/05/07 07:52:02;;;;;;;4.40;2.67;;;;;;;25.68;39.04;91328.31;5033886;28;20488;-63
2022/05/07 07:54:29;;;;;;;6.80;3.00;;;;;;;26.74;36.41;91337.34;5033830;28;20030;-62
2022/05/07 07:56:56;;;;;;;12.57;3.00;;;;;;;25.09;38.00;91336.13;5033922;28;20090;-62
2022/05/07 07:59:21;;;;;;;6.97;2.95;;;;;;;25.78;37.66;91330.25;5033919;28;20044;-62
2022/05/07 08:01:47;;;;;;;7.35;2.63;;;;;;;26.54;36.24;91337.84;5005785;28;20038;-62
2022/05/07 08:04:13;;;;;;;6.82;3.15;;;;;;;26.08;37.08;91329.03;5013920;28;20113;-63
2022/05/07 08:06:38;;;;;;;5.82;2.67;;;;;;;24.44;38.69;91327.00;5014037;28;20046;-63
2022/05/07 08:11:49;;;;;;;4.57;2.80;;;;;;;26.24;37.07;91330.13;5014256;28;20049;-61
2022/05/07 08:14:15;;;;;;;4.43;3.00;;;;;;;26.78;35.66;91333.41;5013777;28;20117;-61
2022/05/07 08:16:42;;;;;;;3.78;2.80;;;;;;;27.44;35.34;91327.13;5013312;28;20124;-62
2022/05/07 08:19:07;;;;;;;4.65;3.05;;;;;;;27.78;35.14;91326.50;5012821;28;20054;-60
2022/05/07 08:21:33;;;;;;;6.78;3.45;;;;;;;27.23;35.12;91313.66;5013727;28;20092;-67
2022/05/07 08:23:59;;;;;;;6.80;3.03;;;;;;;26.77;35.83;91328.34;5013563;28;20467;-64
2022/05/07 08:26:25;;;;;;;4.88;3.00;;;;;;;25.72;36.96;91326.38;5013658;28;20515;-66
2022/05/07 08:28:52;;;;;;;5.50;3.30;;;;;;;27.15;35.85;91327.38;5013378;28;20042;-66
2022/05/07 08:31:18;;;;;;;3.05;2.35;;;;;;;27.56;35.18;91325.88;5013681;28;20111;-68
2022/05/07 08:33:44;;;;;;;3.70;2.38;;;;;;;27.78;33.15;91312.84;5013116;28;20575;-71
2022/05/07 08:36:10;;;;;;;5.80;2.80;;;;;;;27.64;35.07;91328.19;4995752;28;20132;-69
2022/05/07 08:38:37;;;;;;;4.43;2.72;;;;;;;27.53;33.06;91319.25;5013469;28;20038;-68
2022/05/07 08:41:03;;;;;;;4.88;2.80;;;;;;;27.15;34.36;91330.09;5013462;28;20038;-68
2022/05/07 08:43:37;;;;;;;3.03;2.55;;;;;;;27.29;33.77;91336.63;5013343;28;20044;-74
2022/05/07 08:46:11;;;;;;;4.07;2.83;;;;;;;27.40;33.40;91340.84;5013031;28;20488;-72
2022/05/07 08:48:42;;;;;;;7.35;2.72;;;;;;;26.50;33.51;91334.34;5013388;28;20121;-73
2022/05/07 08:51:09;;;;;;;3.88;2.58;;;;;;;24.33;35.11;91339.03;5013417;28;20033;-73
2022/05/07 08:53:34;;;;;;;2.90;2.60;;;;;;;23.53;36.91;91338.94;5013223;28;20042;-73
2022/05/07 08:56:01;;;;;;;3.78;2.83;;;;;;;21.49;39.66;91330.56;5013205;28;20056;-73
2022/05/07 08:58:26;;;;;;;4.75;2.70;;;;;;;21.90;39.81;91340.75;5013217;28;20412;-73
2022/05/07 09:00:52;;;;;;;3.88;2.90;;;;;;;22.00;40.22;91340.13;5013253;28;20045;-73
2022/05/07 09:03:18;;;;;;;3.03;2.60;;;;;;;23.81;39.61;91336.41;5013214;28;20045;-73
2022/05/07 09:05:44;;;;;;;3.10;2.63;;;;;;;24.42;37.52;91332.03;4995306;28;20514;-73
2022/05/07 09:08:11;;;;;;;4.38;2.70;;;;;;;24.38;35.72;91331.25;5013042;28;20056;-74
2022/05/07 09:10:38;;;;;;;4.05;2.35;;;;;;;23.17;37.38;91335.16;5013087;28;20037;-73
2022/05/07 09:13:08;;;;;;;5.50;3.20;;;;;;;23.83;37.80;91327.91;5012873;28;20041;-73
2022/05/07 09:15:35;;;;;;;3.22;2.40;;;;;;;24.82;35.60;91326.72;5012854;28;20133;-73
2022/05/07 09:18:00;;;;;;;3.42;2.33;;;;;;;24.30;36.80;91328.88;5012934;28;20042;-73
2022/05/07 09:20:26;;;;;;;5.32;3.45;;;;;;;25.02;38.55;91334.16;5012858;28;20040;-73
2022/05/07 09:22:55;;;;;;;5.53;2.75;;;;;;;24.13;36.58;91319.47;5012807;28;20080;-73
2022/05/07 09:25:22;;;;;;;3.50;1.98;;;;;;;24.31;34.98;91323.09;5012540;28;20041;-73
2022/05/07 09:27:51;;;;;;;2.88;2.53;;;;;;;25.18;37.15;91314.72;5012533;28;20074;-73
2022/05/07 09:30:27;;;;;;;2.22;1.95;;;;;;;24.86;34.21;91324.78;4994093;28;20040;-73
2022/05/07 09:32:55;;;;;;;4.90;2.42;;;;;;;23.48;35.92;91310.19;5012595;28;20049;-73
2022/05/07 09:38:11;;;;;;;3.25;2.53;;;;;;;23.92;36.54;91314.72;5012527;28;20045;-73
2022/05/07 09:40:38;;;;;;;3.63;2.05;;;;;;;26.04;33.03;91315.41;5012442;28;20030;-73
2022/05/07 09:43:05;;;;;;;3.80;2.08;;;;;;;25.58;33.66;91318.97;5012314;28;20045;-73
2022/05/07 09:45:30;;;;;;;3.15;1.90;;;;;;;26.10;32.74;91321.22;5012078;28;20120;-73
2022/05/07 09:47:58;;;;;;;4.03;2.35;;;;;;;25.78;32.71;91308.47;5012170;28;20124;-73
2022/05/07 09:58:48;;;;;;;3.22;2.22;;;;;;;25.92;32.92;91310.38;5068483;28;20532;-72
2022/05/07 10:01:32;;;;;;;3.90;2.00;;;;;;;25.75;34.23;91308.47;5068405;28;20040;-72
2022/05/07 10:04:06;;;;;;;3.38;2.28;;;;;;;25.56;33.97;91306.91;5068288;28;20033;-72
2022/05/07 10:06:49;;;;;;;6.05;3.40;;;;;;;26.13;35.71;91306.78;5068525;28;20043;-72
2022/05/07 10:09:50;;;;;;;3.42;2.22;;;;;;;25.94;34.34;91300.63;5068831;28;20032;-72
2022/05/07 10:12:21;;;;;;;5.30;2.15;;;;;;;24.79;34.91;91301.06;5068378;28;20546;-72
2022/05/07 10:14:47;;;;;;;3.45;2.40;;;;;;;25.86;33.74;91301.81;5068041;28;20047;-71
2022/05/07 10:17:14;;;;;;;3.85;2.22;;;;;;;27.67;32.38;91296.53;5068065;28;20124;-72
2022/05/07 10:19:42;;;;;;;3.95;1.92;;;;;;;27.03;32.89;91305.22;5068120;28;20045;-72
2022/05/07 10:22:23;;;;;;;4.07;2.40;;;;;;;24.93;34.86;91300.28;5068011;28;20044;-72
2022/05/07 10:25:13;;;;;;;3.13;2.30;;;;;;;25.55;34.94;91300.66;5067970;28;20067;-72
2022/05/07 10:27:51;;;;;;;2.88;2.40;;;;;;;24.57;37.04;91304.88;5067825;28;20106;-72
2022/05/07 10:30:22;;;;;;;1.83;1.67;;;;;;;24.15;36.02;91290.00;5067735;28;20037;-72
2022/05/07 10:32:55;;;;;;;2.67;2.20;;;;;;;23.58;37.99;91293.22;5067746;28;20048;-72
2022/05/07 10:35:58;;;;;;;2.42;2.17;;;;;;;25.03;35.57;91300.31;5067653;28;20473;-72
2022/05/07 10:38:26;;;;;;;2.53;2.10;;;;;;;23.98;36.78;91290.69;5064406;28;20053;-72
2022/05/07 10:40:56;;;;;;;2.60;2.15;;;;;;;24.05;38.26;91288.78;5067598;28;20040;-72
2022/05/07 10:43:33;;;;;;;3.65;2.47;;;;;;;24.19;37.55;91301.66;5066160;28;20475;-72
2022/05/07 10:46:01;;;;;;;4.00;2.40;;;;;;;24.98;35.28;91297.19;5067432;28;20036;-72
2022/05/07 10:48:27;;;;;;;5.40;2.30;;;;;;;23.12;37.35;91290.16;5066962;28;20083;-72
2022/05/07 10:50:55;;;;;;;3.95;2.92;;;;;;;23.76;36.29;91289.81;5067328;28;20037;-72
2022/05/07 10:53:21;;;;;;;4.18;2.22;;;;;;;22.34;38.93;91298.34;5067523;28;20048;-71
2022/05/07 10:55:50;;;;;;;3.00;2.42;;;;;;;23.75;37.53;91288.25;5067373;28;20076;-72
2022/05/07 10:58:26;;;;;;;2.67;2.10;;;;;;;23.94;37.59;91287.94;5067124;28;20054;-72
2022/05/07 11:00:52;;;;;;;2.85;2.55;;;;;;;23.35;36.67;91289.91;5059417;28;20506;-72
2022/05/07 11:03:25;;;;;;;3.35;2.35;;;;;;;22.40;38.38;91286.00;5053939;28;20033;-71
2022/05/07 11:05:50;;;;;;;4.05;2.13;;;;;;;20.66;40.79;91283.63;5054223;28;20048;-71
2022/05/07 11:08:16;;;;;;;5.00;2.70;;;;;;;21.19;40.47;91279.06;5053776;28;20097;-71
2022/05/07 11:10:42;;;;;;;3.25;2.33;;;;;;;21.12;40.45;91281.66;5053809;28;20037;-71
2022/05/07 11:13:08;;;;;;;3.03;2.30;;;;;;;20.98;41.21;91291.47;5053715;28;20079;-71
2022/05/07 11:15:33;;;;;;;4.47;2.40;;;;;;;21.23;40.09;91284.53;5053640;28;20036;-71
2022/05/07 11:17:59;;;;;;;2.83;2.10;;;;;;;21.48;40.53;91276.78;5053711;28;20514;-71
2022/05/07 11:20:31;;;;;;;4.15;2.50;;;;;;;22.45;41.75;91270.56;5053657;28;20033;-72
2022/05/07 11:23:00;;;;;;;5.53;2.20;;;;;;;22.94;39.53;91270.25;5053495;28;20102;-72
2022/05/07 11:25:27;;;;;;;5.60;2.20;;;;;;;23.07;40.39;91259.88;5053464;28;20079;-72
2022/05/07 11:27:55;;;;;;;10.52;3.03;;;;;;;23.45;38.54;91275.63;5053512;28;20095;-72
2022/05/07 11:30:22;;;;;;;2.97;2.47;;;;;;;21.07;42.07;91273.06;5053437;28;20483;-71
2022/05/07 11:32:47;;;;;;;3.28;2.05;;;;;;;20.58;42.79;91271.94;5053364;28;20091;-71
2022/05/07 11:35:13;;;;;;;3.72;2.92;;;;;;;20.77;44.18;91268.38;5053126;28;20072;-72
2022/05/07 11:37:41;;;;;;;3.50;2.88;;;;;;;22.07;41.17;91270.56;5053300;28;20123;-71
2022/05/07 11:40:08;;;;;;;3.20;2.08;;;;;;;21.12;43.19;91270.06;5053240;28;20045;-72
2022/05/07 11:42:46;;;;;;;2.53;2.33;;;;;;;22.45;40.46;91267.88;5053198;28;20499;-72
2022/05/07 11:45:31;;;;;;;4.78;2.47;;;;;;;21.42;41.13;91268.19;5053105;28;20040;-72
2022/05/07 11:48:04;;;;;;;4.18;2.60;;;;;;;23.18;40.11;91266.16;5053111;28;20091;-72
2022/05/07 11:50:32;;;;;;;6.38;2.92;;;;;;;23.43;38.43;91261.66;5052802;28;20495;-72
2022/05/07 11:53:13;;;;;;;5.25;2.72;;;;;;;23.68;38.89;91261.06;5052971;28;20037;-72
2022/05/07 11:55:39;;;;;;;2.75;2.00;;;;;;;24.63;36.81;91252.44;5052819;28;20116;-72
2022/05/07 11:58:22;;;;;;;2.53;2.20;;;;;;;24.43;34.83;91267.56;5052972;28;20043;-72
2022/05/07 12:00:49;;;;;;;2.88;2.58;;;;;;;22.60;36.37;91259.47;5052947;28;20029;-72
2022/05/07 12:03:26;;;;;;;4.75;2.28;;;;;;;22.71;35.59;91254.13;5052778;28;20045;-72
2022/05/07 12:05:53;;;;;;;3.90;1.85;;;;;;;22.45;37.09;91267.88;5052758;28;20048;-72